createdAt,value
2018-05-12T00:01:28.327Z,14.80
2018-05-12T00:03:32.765Z,14.80
2018-05-12T00:05:36.992Z,14.70
2018-05-12T00:07:41.420Z,14.70
2018-05-12T00:09:46.607Z,14.70
2018-05-12T00:11:51.380Z,14.70
2018-05-12T00:13:56.755Z,14.70
2018-05-12T00:16:01.189Z,14.70
2018-05-12T00:18:05.290Z,14.70
2018-05-12T00:20:09.730Z,14.70
2018-05-12T00:22:14.155Z,14.80
2018-05-12T00:24:18.594Z,14.80
2018-05-12T00:26:23.788Z,14.70
2018-05-12T00:28:28.210Z,14.70
2018-05-12T00:30:32.652Z,14.70
2018-05-12T00:32:37.075Z,14.80
2018-05-12T00:34:42.272Z,14.80
2018-05-12T00:36:46.702Z,14.80
2018-05-12T00:38:51.141Z,14.80
2018-05-12T00:40:55.243Z,14.90
2018-05-12T00:42:59.682Z,14.90
2018-05-12T00:45:03.643Z,14.80
2018-05-12T00:47:08.087Z,14.70
2018-05-12T00:49:12.568Z,14.70
2018-05-12T00:51:16.969Z,14.70
2018-05-12T00:53:21.501Z,14.60
2018-05-12T00:55:26.020Z,14.60
2018-05-12T00:57:30.138Z,14.60
2018-05-12T00:59:34.568Z,14.60
2018-05-12T01:01:39.203Z,14.50
2018-05-12T01:03:43.687Z,14.50
2018-05-12T01:05:48.083Z,14.50
2018-05-12T01:07:52.210Z,14.50
2018-05-12T01:09:56.342Z,14.50
2018-05-12T01:12:01.351Z,14.50
2018-05-12T01:14:05.563Z,14.50
2018-05-12T01:16:09.702Z,14.40
2018-05-12T01:18:14.291Z,14.50
2018-05-12T01:20:18.728Z,14.50
2018-05-12T01:22:23.154Z,14.60
2018-05-12T01:24:27.617Z,14.60
2018-05-12T01:26:32.044Z,14.60
2018-05-12T01:28:36.478Z,14.60
2018-05-12T01:30:41.115Z,14.60
2018-05-12T01:32:46.026Z,14.60
2018-05-12T01:34:50.464Z,14.60
2018-05-12T01:36:54.925Z,14.60
2018-05-12T01:39:00.197Z,14.70
2018-05-12T01:41:04.577Z,14.70
2018-05-12T01:43:09.029Z,14.70
2018-05-12T01:45:13.445Z,14.70
2018-05-12T01:47:17.883Z,14.70
2018-05-12T01:49:22.335Z,14.70
2018-05-12T01:51:26.750Z,14.70
2018-05-12T01:53:31.607Z,14.60
2018-05-12T01:55:36.062Z,14.60
2018-05-12T01:57:40.679Z,14.60
2018-05-12T01:59:45.181Z,14.60
2018-05-12T02:01:49.594Z,14.60
2018-05-12T02:03:54.019Z,14.40
2018-05-12T02:05:58.455Z,14.40
2018-05-12T02:08:02.899Z,14.50
2018-05-12T02:10:07.043Z,14.50
2018-05-12T02:12:11.478Z,14.50
2018-05-12T02:14:16.098Z,14.50
2018-05-12T02:16:20.527Z,14.40
2018-05-12T02:18:24.952Z,14.50
2018-05-12T02:20:29.446Z,14.50
2018-05-12T02:22:33.503Z,14.40
2018-05-12T02:24:38.687Z,14.50
2018-05-12T02:26:42.850Z,14.50
2018-05-12T02:28:48.136Z,14.50
2018-05-12T02:30:52.551Z,14.50
2018-05-12T02:32:56.967Z,14.50
2018-05-12T02:35:01.385Z,14.40
2018-05-12T02:37:05.545Z,14.40
2018-05-12T02:39:10.832Z,14.50
2018-05-12T02:41:15.219Z,14.40
2018-05-12T02:43:19.644Z,14.50
2018-05-12T02:45:23.750Z,14.50
2018-05-12T02:47:28.175Z,14.50
2018-05-12T02:49:33.543Z,14.40
2018-05-12T02:51:37.995Z,14.40
2018-05-12T02:53:43.196Z,14.50
2018-05-12T02:55:47.860Z,14.50
2018-05-12T02:57:52.482Z,14.50
2018-05-12T02:59:57.675Z,14.50
2018-05-12T03:02:02.585Z,14.50
2018-05-12T03:04:06.716Z,14.50
2018-05-12T03:06:11.135Z,14.50
2018-05-12T03:08:16.047Z,14.50
2018-05-12T03:10:20.483Z,14.50
2018-05-12T03:12:24.902Z,14.40
2018-05-12T03:14:29.326Z,14.40
2018-05-12T03:16:33.775Z,14.40
2018-05-12T03:18:38.223Z,14.40
2018-05-12T03:20:42.666Z,14.30
2018-05-12T03:22:47.112Z,14.30
2018-05-12T03:24:52.308Z,14.40
2018-05-12T03:26:56.737Z,14.40
2018-05-12T03:29:01.563Z,14.40
2018-05-12T03:31:05.659Z,14.40
2018-05-12T03:33:10.086Z,14.40
2018-05-12T03:35:14.518Z,14.40
2018-05-12T03:37:18.711Z,14.40
2018-05-12T03:39:23.134Z,14.40
2018-05-12T03:41:27.566Z,14.30
2018-05-12T03:43:31.998Z,14.30
2018-05-12T03:45:36.442Z,14.30
2018-05-12T03:47:40.886Z,14.40
2018-05-12T03:49:45.310Z,14.40
2018-05-12T03:51:49.742Z,14.30
2018-05-12T03:53:54.182Z,14.30
2018-05-12T03:55:59.366Z,14.30
2018-05-12T03:58:03.793Z,14.30
2018-05-12T04:00:08.241Z,14.30
2018-05-12T04:02:14.119Z,14.30
2018-05-12T04:04:29.816Z,14.30
2018-05-12T04:06:45.274Z,14.30
2018-05-12T04:09:02.231Z,14.30
2018-05-12T04:11:18.263Z,14.30
2018-05-12T04:13:22.407Z,14.30
2018-05-12T04:15:26.846Z,14.30
2018-05-12T04:17:31.095Z,14.30
2018-05-12T04:19:36.284Z,14.30
2018-05-12T04:21:40.734Z,14.30
2018-05-12T04:23:45.951Z,14.40
2018-05-12T04:25:50.405Z,14.30
2018-05-12T04:27:55.030Z,14.40
2018-05-12T04:29:59.450Z,14.40
2018-05-12T04:32:03.878Z,14.40
2018-05-12T04:34:08.514Z,14.30
2018-05-12T04:36:12.951Z,14.30
2018-05-12T04:38:17.858Z,14.40
2018-05-12T04:40:22.304Z,14.40
2018-05-12T04:42:26.731Z,14.50
2018-05-12T04:44:31.178Z,14.50
2018-05-12T04:46:35.598Z,14.60
2018-05-12T04:48:40.018Z,14.60
2018-05-12T04:50:44.460Z,14.60
2018-05-12T04:52:48.891Z,14.60
2018-05-12T04:54:54.250Z,14.60
2018-05-12T04:56:58.686Z,14.60
2018-05-12T04:59:04.098Z,14.70
2018-05-12T05:01:08.526Z,14.70
2018-05-12T05:03:12.947Z,14.60
2018-05-12T05:05:17.590Z,14.70
2018-05-12T05:07:22.019Z,14.70
2018-05-12T05:09:26.463Z,14.80
2018-05-12T05:11:31.023Z,14.80
2018-05-12T05:13:35.448Z,14.80
2018-05-12T05:15:40.634Z,14.70
2018-05-12T05:17:45.103Z,14.70
2018-05-12T05:19:50.286Z,14.80
2018-05-12T05:21:54.725Z,14.80
2018-05-12T05:23:59.179Z,14.80
2018-05-12T05:26:04.366Z,14.90
2018-05-12T05:28:08.791Z,14.90
2018-05-12T05:30:13.233Z,14.90
2018-05-12T05:32:18.456Z,15.00
2018-05-12T05:34:22.940Z,15.00
2018-05-12T05:36:27.374Z,15.00
2018-05-12T05:38:31.826Z,15.00
2018-05-12T05:40:36.682Z,15.10
2018-05-12T05:42:41.105Z,15.10
2018-05-12T05:44:45.828Z,15.10
2018-05-12T05:46:50.979Z,15.20
2018-05-12T05:48:55.406Z,15.10
2018-05-12T05:50:59.848Z,15.20
2018-05-12T05:53:04.307Z,15.30
2018-05-12T05:55:08.750Z,15.30
2018-05-12T05:57:13.178Z,15.30
2018-05-12T05:59:17.816Z,15.30
2018-05-12T06:01:22.247Z,15.20
2018-05-12T06:03:27.642Z,15.30
2018-05-12T06:05:32.462Z,15.30
2018-05-12T06:07:37.078Z,15.40
2018-05-12T06:09:41.503Z,15.40
2018-05-12T06:11:45.951Z,15.50
2018-05-12T06:13:50.387Z,15.60
2018-05-12T06:15:55.584Z,15.70
2018-05-12T06:18:00.180Z,15.70
2018-05-12T06:20:03.746Z,15.70
2018-05-12T06:22:07.931Z,15.60
2018-05-12T06:24:12.354Z,15.70
2018-05-12T06:26:17.749Z,15.80
2018-05-12T06:28:22.215Z,15.80
2018-05-12T06:30:27.082Z,15.90
2018-05-12T06:32:31.551Z,15.80
2018-05-12T06:34:36.794Z,15.90
2018-05-12T06:36:41.996Z,16.00
2018-05-12T06:38:46.437Z,15.90
2018-05-12T06:40:51.074Z,15.90
2018-05-12T06:42:56.282Z,16.10
2018-05-12T06:45:00.715Z,16.00
2018-05-12T06:47:04.990Z,16.10
2018-05-12T06:49:09.651Z,16.20
2018-05-12T06:51:14.870Z,16.30
2018-05-12T06:53:19.298Z,16.30
2018-05-12T06:55:24.514Z,16.50
2018-05-12T06:57:28.946Z,16.50
2018-05-12T06:59:33.431Z,16.50
2018-05-12T07:01:37.855Z,16.50
2018-05-12T07:03:42.297Z,16.50
2018-05-12T07:05:46.729Z,16.60
2018-05-12T07:07:52.150Z,16.60
2018-05-12T07:09:58.087Z,16.60
2018-05-12T07:12:02.523Z,16.60
2018-05-12T07:14:06.961Z,16.70
2018-05-12T07:16:12.159Z,16.80
2018-05-12T07:18:16.602Z,16.80
2018-05-12T07:20:21.810Z,16.80
2018-05-12T07:22:26.254Z,16.80
2018-05-12T07:24:30.687Z,17.00
2018-05-12T07:26:36.208Z,17.10
2018-05-12T07:28:41.404Z,17.20
2018-05-12T07:30:45.837Z,17.20
2018-05-12T07:32:50.283Z,17.30
2018-05-12T07:34:54.710Z,17.20
2018-05-12T07:36:59.907Z,17.20
2018-05-12T07:39:03.523Z,17.10
2018-05-12T07:41:07.759Z,17.20
2018-05-12T07:43:12.948Z,17.20
2018-05-12T07:45:17.415Z,17.20
2018-05-12T07:47:22.610Z,17.30
2018-05-12T07:49:27.039Z,17.30
2018-05-12T07:51:31.814Z,17.40
2018-05-12T07:53:36.390Z,17.50
2018-05-12T07:55:40.818Z,17.60
2018-05-12T07:57:46.038Z,17.60
2018-05-12T07:59:51.255Z,17.60
2018-05-12T08:01:55.690Z,17.60
2018-05-12T08:04:00.502Z,17.70
2018-05-12T08:06:04.934Z,17.70
2018-05-12T08:08:10.127Z,17.80
2018-05-12T08:10:14.591Z,17.80
2018-05-12T08:12:19.782Z,17.80
2018-05-12T08:14:24.217Z,17.80
2018-05-12T08:16:28.658Z,17.80
2018-05-12T08:18:33.858Z,17.90
2018-05-12T08:20:38.465Z,17.90
2018-05-12T08:22:42.987Z,17.90
2018-05-12T08:24:47.083Z,17.90
2018-05-12T08:26:51.543Z,18.00
2018-05-12T08:28:56.176Z,18.00
2018-05-12T08:31:01.370Z,18.10
2018-05-12T08:33:05.516Z,18.10
2018-05-12T08:35:09.954Z,18.10
2018-05-12T08:37:15.144Z,18.30
2018-05-12T08:39:19.570Z,18.30
2018-05-12T08:41:24.123Z,18.40
2018-05-12T08:43:29.331Z,18.60
2018-05-12T08:45:33.958Z,18.60
2018-05-12T08:47:39.260Z,19.00
2018-05-12T08:49:44.410Z,19.10
2018-05-12T08:51:48.870Z,19.00
2018-05-12T08:53:54.063Z,19.10
2018-05-12T08:55:58.485Z,19.10
2018-05-12T08:58:04.446Z,19.20
2018-05-12T09:00:08.866Z,19.20
2018-05-12T09:02:14.060Z,19.20
2018-05-12T09:04:18.708Z,19.20
2018-05-12T09:06:23.138Z,19.20
2018-05-12T09:08:29.077Z,19.30
2018-05-12T09:10:33.186Z,19.30
2018-05-12T09:12:37.610Z,19.40
2018-05-12T09:14:42.799Z,19.60
2018-05-12T09:16:47.238Z,19.60
2018-05-12T09:18:51.663Z,19.70
2018-05-12T09:20:55.811Z,19.80
2018-05-12T09:23:00.447Z,19.70
2018-05-12T09:25:05.306Z,19.80
2018-05-12T09:27:09.738Z,19.90
2018-05-12T09:29:14.191Z,19.90
2018-05-12T09:31:19.378Z,20.00
2018-05-12T09:33:23.798Z,20.00
2018-05-12T09:35:28.233Z,19.90
2018-05-12T09:37:33.430Z,20.10
2018-05-12T09:39:37.845Z,20.00
2018-05-12T09:41:42.483Z,20.10
2018-05-12T09:43:46.910Z,20.40
2018-05-12T09:45:51.359Z,20.40
2018-05-12T09:47:55.784Z,20.60
2018-05-12T09:50:00.969Z,21.10
2018-05-12T09:52:05.412Z,21.00
2018-05-12T09:54:09.904Z,20.80
2018-05-12T09:56:14.295Z,20.80
2018-05-12T09:58:19.072Z,20.80
2018-05-12T10:00:25.279Z,21.00
2018-05-12T10:02:29.720Z,20.80
2018-05-12T10:04:33.846Z,20.90
2018-05-12T10:06:38.285Z,20.90
2018-05-12T10:08:43.496Z,21.00
2018-05-12T10:10:47.923Z,20.90
2018-05-12T10:12:53.915Z,20.90
2018-05-12T10:14:58.482Z,20.90
2018-05-12T10:17:02.994Z,21.00
2018-05-12T10:19:07.393Z,21.10
2018-05-12T10:21:12.038Z,21.20
2018-05-12T10:23:16.671Z,21.30
2018-05-12T10:25:21.096Z,21.10
2018-05-12T10:27:25.789Z,21.00
2018-05-12T10:29:30.190Z,21.00
2018-05-12T10:31:34.616Z,21.10
2018-05-12T10:33:39.058Z,21.20
2018-05-12T10:35:44.251Z,21.40
2018-05-12T10:37:48.678Z,21.30
2018-05-12T10:39:52.883Z,21.50
2018-05-12T10:41:57.071Z,21.80
2018-05-12T10:44:02.267Z,21.80
2018-05-12T10:46:06.907Z,21.80
2018-05-12T10:48:11.330Z,21.80
2018-05-12T10:50:16.512Z,21.70
2018-05-12T10:52:21.038Z,21.70
2018-05-12T10:54:25.463Z,21.70
2018-05-12T10:56:30.059Z,21.80
2018-05-12T10:58:34.726Z,21.90
2018-05-12T11:00:39.152Z,22.20
2018-05-12T11:02:43.575Z,22.20
2018-05-12T11:04:48.786Z,22.40
2018-05-12T11:06:53.227Z,22.40
2018-05-12T11:08:58.418Z,22.50
2018-05-12T11:11:02.843Z,22.50
2018-05-12T11:13:07.487Z,22.50
2018-05-12T11:15:11.915Z,22.30
2018-05-12T11:17:16.522Z,22.20
2018-05-12T11:19:20.955Z,22.20
2018-05-12T11:21:26.414Z,22.20
2018-05-12T11:23:30.837Z,22.10
2018-05-12T11:25:35.267Z,22.30
2018-05-12T11:27:39.695Z,22.40
2018-05-12T11:29:44.118Z,22.30
2018-05-12T11:31:48.550Z,22.40
2018-05-12T11:33:52.995Z,23.00
2018-05-12T11:35:58.190Z,23.30
2018-05-12T11:38:02.642Z,23.30
2018-05-12T11:40:06.814Z,23.50
2018-05-12T11:42:11.234Z,23.60
2018-05-12T11:44:15.672Z,23.70
2018-05-12T11:46:20.109Z,24.00
2018-05-12T11:48:25.300Z,23.10
2018-05-12T11:50:29.738Z,23.00
2018-05-12T11:52:34.358Z,23.20
2018-05-12T11:54:38.779Z,23.70
2018-05-12T11:56:43.222Z,23.80
2018-05-12T11:58:48.414Z,23.70
2018-05-12T12:00:52.834Z,23.70
2018-05-12T12:02:57.270Z,24.10
2018-05-12T12:05:01.703Z,23.80
2018-05-12T12:07:06.917Z,22.80
2018-05-12T12:09:11.342Z,22.80
2018-05-12T12:11:15.787Z,22.50
2018-05-12T12:13:20.239Z,22.30
2018-05-12T12:15:24.854Z,22.20
2018-05-12T12:17:29.043Z,22.00
2018-05-12T12:19:33.508Z,22.20
2018-05-12T12:21:37.593Z,23.00
2018-05-12T12:23:42.047Z,24.20
2018-05-12T12:25:46.471Z,25.20
2018-05-12T12:27:50.638Z,25.30
2018-05-12T12:29:55.622Z,26.10
2018-05-12T12:32:00.603Z,26.60
2018-05-12T12:34:05.582Z,26.20
2018-05-12T12:36:10.595Z,26.80
2018-05-12T12:38:15.575Z,26.50
2018-05-12T12:40:20.550Z,26.50
2018-05-12T12:42:24.982Z,26.70
2018-05-12T12:44:30.174Z,26.90
2018-05-12T12:46:34.622Z,26.90
2018-05-12T12:48:39.043Z,27.50
2018-05-12T12:50:43.470Z,27.30
2018-05-12T12:52:48.666Z,28.40
2018-05-12T12:54:53.095Z,28.30
2018-05-12T12:56:57.280Z,28.30
2018-05-12T12:59:01.671Z,28.10
2018-05-12T13:01:05.942Z,28.00
2018-05-12T13:03:10.478Z,28.70
2018-05-12T13:05:14.944Z,28.70
2018-05-12T13:07:19.344Z,28.20
2018-05-12T13:09:23.795Z,28.10
2018-05-12T13:11:28.222Z,28.10
2018-05-12T13:13:32.639Z,27.40
2018-05-12T13:15:37.076Z,26.60
2018-05-12T13:17:42.289Z,26.50
2018-05-12T13:19:47.261Z,26.40
2018-05-12T13:21:51.818Z,26.70
2018-05-12T13:23:56.443Z,26.70
2018-05-12T13:26:00.875Z,26.10
2018-05-12T13:28:05.877Z,26.00
2018-05-12T13:30:10.017Z,26.70
2018-05-12T13:32:15.042Z,27.80
2018-05-12T13:34:20.182Z,28.40
2018-05-12T13:36:25.186Z,28.20
2018-05-12T13:38:29.615Z,28.10
2018-05-12T13:40:34.032Z,28.10
2018-05-12T13:42:38.474Z,28.20
2018-05-12T13:44:42.898Z,29.20
2018-05-12T13:46:48.094Z,29.50
2018-05-12T13:48:52.222Z,29.50
2018-05-12T13:50:56.813Z,29.20
2018-05-12T13:53:01.256Z,29.60
2018-05-12T13:55:05.339Z,30.20
2018-05-12T13:57:09.429Z,29.20
2018-05-12T13:59:13.863Z,29.40
2018-05-12T14:01:18.489Z,29.80
2018-05-12T14:03:22.941Z,30.00
2018-05-12T14:05:27.350Z,30.40
2018-05-12T14:07:31.786Z,30.50
2018-05-12T14:09:36.987Z,29.10
2018-05-12T14:11:41.490Z,29.00
2018-05-12T14:13:45.874Z,28.50
2018-05-12T14:15:50.866Z,28.40
2018-05-12T14:17:55.864Z,28.70
2018-05-12T14:20:00.830Z,28.90
2018-05-12T14:22:05.811Z,28.60
2018-05-12T14:24:10.802Z,29.20
2018-05-12T14:26:15.786Z,29.30
2018-05-12T14:28:21.506Z,29.10
2018-05-12T14:30:26.486Z,29.20
2018-05-12T14:32:31.470Z,29.50
2018-05-12T14:34:36.474Z,30.20
2018-05-12T14:36:41.463Z,30.60
2018-05-12T14:38:45.886Z,29.80
2018-05-12T14:40:50.330Z,29.90
2018-05-12T14:42:55.195Z,30.70
2018-05-12T14:44:59.729Z,30.60
2018-05-12T14:47:04.146Z,31.20
2018-05-12T14:49:08.868Z,31.30
2018-05-12T14:51:13.269Z,29.90
2018-05-12T14:53:18.242Z,28.30
2018-05-12T14:55:22.885Z,28.50
2018-05-12T14:57:27.915Z,29.70
2018-05-12T14:59:32.900Z,30.10
2018-05-12T15:01:38.667Z,30.20
2018-05-12T15:03:43.102Z,30.10
2018-05-12T15:05:47.706Z,30.20
2018-05-12T15:07:52.686Z,30.50
2018-05-12T15:09:57.330Z,30.20
2018-05-12T15:12:02.348Z,30.50
2018-05-12T15:14:06.492Z,30.80
2018-05-12T15:16:10.923Z,30.50
2018-05-12T15:18:15.917Z,31.20
2018-05-12T15:20:20.351Z,31.00
2018-05-12T15:22:24.784Z,30.40
2018-05-12T15:24:29.792Z,30.00
2018-05-12T15:26:35.547Z,30.40
2018-05-12T15:28:41.380Z,30.40
2018-05-12T15:30:46.322Z,30.30
2018-05-12T15:32:52.065Z,31.00
2018-05-12T15:34:57.826Z,29.90
2018-05-12T15:37:03.611Z,29.20
2018-05-12T15:39:08.588Z,29.10
2018-05-12T15:41:13.011Z,28.80
2018-05-12T15:43:18.766Z,27.50
2018-05-12T15:45:24.509Z,27.20
2018-05-12T15:47:28.955Z,27.20
2018-05-12T15:49:33.926Z,27.60
2018-05-12T15:51:38.351Z,27.80
2018-05-12T15:53:43.044Z,27.50
2018-05-12T15:55:47.617Z,27.20
2018-05-12T15:57:52.118Z,27.30
2018-05-12T15:59:56.534Z,26.70
2018-05-12T16:02:00.969Z,26.20
2018-05-12T16:04:05.473Z,25.50
2018-05-12T16:06:09.879Z,25.40
2018-05-12T16:08:14.307Z,25.70
2018-05-12T16:10:18.820Z,26.10
2018-05-12T16:12:24.317Z,26.20
2018-05-12T16:14:28.934Z,26.20
2018-05-12T16:16:34.130Z,25.70
2018-05-12T16:18:38.554Z,25.70
2018-05-12T16:20:43.006Z,25.00
2018-05-12T16:22:48.200Z,24.40
2018-05-12T16:24:52.704Z,24.40
2018-05-12T16:26:57.103Z,24.30
2018-05-12T16:29:01.535Z,24.00
2018-05-12T16:31:05.950Z,23.70
2018-05-12T16:33:10.390Z,23.50
2018-05-12T16:35:14.834Z,23.50
2018-05-12T16:37:19.304Z,23.60
2018-05-12T16:39:24.027Z,23.40
2018-05-12T16:41:28.443Z,23.30
2018-05-12T16:43:32.521Z,23.20
2018-05-12T16:45:36.971Z,23.00
2018-05-12T16:47:41.416Z,22.90
2018-05-12T16:49:45.511Z,22.90
2018-05-12T16:51:49.986Z,22.80
2018-05-12T16:53:54.413Z,22.50
2018-05-12T16:55:58.863Z,22.40
2018-05-12T16:58:02.966Z,22.70
2018-05-12T17:00:07.394Z,22.90
2018-05-12T17:02:11.826Z,23.40
2018-05-12T17:04:17.806Z,23.90
2018-05-12T17:06:22.416Z,23.90
2018-05-12T17:08:27.724Z,24.20
2018-05-12T17:10:32.162Z,24.20
2018-05-12T17:12:37.366Z,25.00
2018-05-12T17:14:41.790Z,24.90
2018-05-12T17:16:46.234Z,25.00
2018-05-12T17:18:51.423Z,24.70
2018-05-12T17:20:55.864Z,24.70
2018-05-12T17:22:59.974Z,24.90
2018-05-12T17:25:04.067Z,25.00
2018-05-12T17:27:08.496Z,24.70
2018-05-12T17:29:12.988Z,25.10
2018-05-12T17:31:17.379Z,25.20
2018-05-12T17:33:21.810Z,25.30
2018-05-12T17:35:26.341Z,24.70
2018-05-12T17:37:30.725Z,24.80
2018-05-12T17:39:35.150Z,24.50
2018-05-12T17:41:39.603Z,24.40
2018-05-12T17:43:44.039Z,24.20
2018-05-12T17:45:48.217Z,24.40
2018-05-12T17:47:53.387Z,24.30
2018-05-12T17:49:57.925Z,24.30
2018-05-12T17:52:02.190Z,24.30
2018-05-12T17:54:06.632Z,23.80
2018-05-12T17:56:11.054Z,23.60
2018-05-12T17:58:15.490Z,23.70
2018-05-12T18:00:19.935Z,23.70
2018-05-12T18:02:24.139Z,23.50
2018-05-12T18:04:28.589Z,23.30
2018-05-12T18:06:32.731Z,23.20
2018-05-12T18:08:37.837Z,22.80
2018-05-12T18:10:42.746Z,22.20
2018-05-12T18:12:47.184Z,22.20
2018-05-12T18:14:51.623Z,22.00
2018-05-12T18:16:55.789Z,21.70
2018-05-12T18:19:00.489Z,21.80
2018-05-12T18:21:04.921Z,21.60
2018-05-12T18:23:09.286Z,21.60
2018-05-12T18:25:13.568Z,21.40
2018-05-12T18:27:19.218Z,21.00
2018-05-12T18:29:23.054Z,21.00
2018-05-12T18:31:27.202Z,20.90
2018-05-12T18:33:31.634Z,20.80
2018-05-12T18:35:36.088Z,20.60
2018-05-12T18:37:41.269Z,20.20
2018-05-12T18:39:45.421Z,20.20
2018-05-12T18:41:50.563Z,19.80
2018-05-12T18:43:55.471Z,19.50
2018-05-12T18:45:59.619Z,19.40
2018-05-12T18:48:04.871Z,19.50
2018-05-12T18:50:09.339Z,19.40
2018-05-12T18:52:14.244Z,19.50
2018-05-12T18:54:18.598Z,19.40
2018-05-12T18:56:23.703Z,19.50
2018-05-12T18:58:28.624Z,19.50
2018-05-12T19:00:32.783Z,19.40
2018-05-12T19:02:37.997Z,19.20
2018-05-12T19:04:42.918Z,19.20
2018-05-12T19:06:47.846Z,19.00
2018-05-12T19:08:52.272Z,19.00
2018-05-12T19:10:56.890Z,18.90
2018-05-12T19:13:01.811Z,18.60
2018-05-12T19:15:06.742Z,18.70
2018-05-12T19:17:11.691Z,18.70
2018-05-12T19:19:16.799Z,18.70
2018-05-12T19:21:20.954Z,18.70
2018-05-12T19:23:25.103Z,18.50
2018-05-12T19:25:29.242Z,18.40
2018-05-12T19:27:34.378Z,18.20
2018-05-12T19:29:39.287Z,18.10
2018-05-12T19:31:43.426Z,18.10
2018-05-12T19:33:47.606Z,18.20
2018-05-12T19:35:52.551Z,18.20
2018-05-12T19:37:57.668Z,18.10
2018-05-12T19:40:02.587Z,18.00
2018-05-12T19:42:06.751Z,18.00
2018-05-12T19:44:10.904Z,18.10
2018-05-12T19:46:15.367Z,18.10
2018-05-12T19:48:20.278Z,18.10
2018-05-12T19:50:25.182Z,18.10
2018-05-12T19:52:29.326Z,18.10
2018-05-12T19:54:33.492Z,17.90
2018-05-12T19:56:37.932Z,17.80
2018-05-12T19:58:42.843Z,17.50
2018-05-12T20:00:46.996Z,17.50
2018-05-12T20:02:51.419Z,17.60
2018-05-12T20:04:55.566Z,17.70
2018-05-12T20:06:59.731Z,17.60
2018-05-12T20:09:03.326Z,17.50
2018-05-12T20:11:07.522Z,17.60
2018-05-12T20:13:12.438Z,17.50
2018-05-12T20:15:16.586Z,17.50
2018-05-12T20:17:20.758Z,17.50
2018-05-12T20:19:25.119Z,17.40
2018-05-12T20:21:29.272Z,17.30
2018-05-12T20:23:33.429Z,17.40
2018-05-12T20:25:37.635Z,17.30
2018-05-12T20:27:41.946Z,17.30
2018-05-12T20:29:46.118Z,17.30
2018-05-12T20:31:50.263Z,17.20
2018-05-12T20:33:54.728Z,17.30
2018-05-12T20:35:58.742Z,17.30
2018-05-12T20:38:02.672Z,17.30
2018-05-12T20:40:07.025Z,17.30
2018-05-12T20:42:11.147Z,17.30
2018-05-12T20:44:15.305Z,17.10
2018-05-12T20:46:19.740Z,17.20
2018-05-12T20:48:24.879Z,17.30
2018-05-12T20:50:29.027Z,17.30
2018-05-12T20:52:33.185Z,17.40
2018-05-12T20:54:37.531Z,17.30
2018-05-12T20:56:41.694Z,17.10
2018-05-12T20:58:45.846Z,17.30
2018-05-12T21:00:50.004Z,17.20
2018-05-12T21:02:54.381Z,17.10
2018-05-12T21:04:58.534Z,17.00
2018-05-12T21:07:02.686Z,17.10
2018-05-12T21:09:07.187Z,17.10
2018-05-12T21:11:11.613Z,17.10
2018-05-12T21:13:15.774Z,17.10
2018-05-12T21:15:20.000Z,17.10
2018-05-12T21:17:24.109Z,17.00
2018-05-12T21:19:28.277Z,16.90
2018-05-12T21:21:33.574Z,16.90
2018-05-12T21:23:38.524Z,17.00
2018-05-12T21:25:42.863Z,16.90
2018-05-12T21:27:47.114Z,17.10
2018-05-12T21:29:51.222Z,17.00
2018-05-12T21:31:55.366Z,16.80
2018-05-12T21:33:59.675Z,16.80
2018-05-12T21:36:04.107Z,16.70
2018-05-12T21:38:08.451Z,16.60
2018-05-12T21:40:12.690Z,16.60
2018-05-12T21:42:16.903Z,16.50
2018-05-12T21:44:21.035Z,16.50
2018-05-12T21:46:25.477Z,16.50
2018-05-12T21:48:29.823Z,16.60
2018-05-12T21:50:33.994Z,16.60
2018-05-12T21:52:38.164Z,16.60
2018-05-12T21:54:41.978Z,16.80
2018-05-12T21:56:46.178Z,16.70
2018-05-12T21:58:50.319Z,16.80
2018-05-12T22:00:54.910Z,16.90
2018-05-12T22:02:59.060Z,16.90
2018-05-12T22:05:03.562Z,16.90
2018-05-12T22:07:08.565Z,16.90
2018-05-12T22:09:12.714Z,16.90
2018-05-12T22:11:16.891Z,16.90
2018-05-12T22:13:21.135Z,17.00
2018-05-12T22:15:25.286Z,17.00
2018-05-12T22:17:29.522Z,17.00
2018-05-12T22:19:33.655Z,17.00
2018-05-12T22:21:38.602Z,17.00
2018-05-12T22:23:42.879Z,17.00
2018-05-12T22:25:46.986Z,17.00
2018-05-12T22:27:51.166Z,17.00
2018-05-12T22:29:55.516Z,17.10
2018-05-12T22:31:59.934Z,17.10
2018-05-12T22:34:04.207Z,17.10
2018-05-12T22:36:08.362Z,17.10
2018-05-12T22:38:13.296Z,17.30
2018-05-12T22:40:18.308Z,17.30
2018-05-12T22:42:22.635Z,17.30
2018-05-12T22:44:27.139Z,17.20
2018-05-12T22:46:32.190Z,17.10
2018-05-12T22:48:36.803Z,17.00
2018-05-12T22:50:41.246Z,16.90
2018-05-12T22:52:45.401Z,17.00
2018-05-12T22:54:49.631Z,16.90
2018-05-12T22:56:53.926Z,16.90
2018-05-12T22:58:58.084Z,16.80
2018-05-12T23:01:02.518Z,16.80
2018-05-12T23:03:07.812Z,16.70
2018-05-12T23:05:12.154Z,16.70
2018-05-12T23:07:16.600Z,16.60
2018-05-12T23:09:21.812Z,16.60
2018-05-12T23:11:26.246Z,16.60
2018-05-12T23:13:31.446Z,16.60
2018-05-12T23:15:35.928Z,16.60
2018-05-12T23:17:40.334Z,16.50
2018-05-12T23:19:44.778Z,16.50
2018-05-12T23:21:49.242Z,16.40
2018-05-12T23:23:54.447Z,16.50
2018-05-12T23:25:58.877Z,16.50
2018-05-12T23:28:03.596Z,16.40
2018-05-12T23:30:08.035Z,16.40
2018-05-12T23:32:12.303Z,16.20
2018-05-12T23:34:16.719Z,16.10
2018-05-12T23:36:21.154Z,16.20
2018-05-12T23:38:25.602Z,16.30
2018-05-12T23:40:30.818Z,16.20
2018-05-12T23:42:35.302Z,16.20
2018-05-12T23:44:39.718Z,16.20
2018-05-12T23:46:44.171Z,16.30
2018-05-12T23:48:48.595Z,16.30
2018-05-12T23:50:53.847Z,16.20
2018-05-12T23:52:59.050Z,16.20
2018-05-12T23:55:03.239Z,16.20
2018-05-12T23:57:07.650Z,16.30
2018-05-12T23:59:12.250Z,16.30
